Time;durP1;ratioP1;P1;durP2;ratioP2;P2;SDS_P1;SDS_P2;PMS_P1;PMS_P2;Temp;Humidity;BMP_temperature;BMP_pressure;BME280_temperature;BME280_humidity;BME280_pressure;Samples;Min_cycle;Max_cycle;Signal;HPM_P1;HPM_P2
2022/11/29 00:00:52;;;;;;;17.23;5.47;;;;;;;;;;6301954;22;20011;-93
2022/11/29 00:03:17;;;;;;;13.77;4.72;;;;;;;;;;6300963;22;20007;-92
2022/11/29 00:05:43;;;;;;;17.58;4.95;;;;;;;;;;6300745;22;20007;-93
2022/11/29 00:08:08;;;;;;;14.80;4.30;;;;;;;;;;6302351;22;20007;-92
2022/11/29 00:10:37;;;;;;;13.13;3.85;;;;;;;;;;6302499;22;20420;-92
2022/11/29 00:13:03;;;;;;;12.13;3.83;;;;;;;;;;6313864;22;20086;-92
2022/11/29 00:15:28;;;;;;;13.25;3.28;;;;;;;;;;6329649;22;20000;-92
2022/11/29 00:17:53;;;;;;;13.20;3.70;;;;;;;;;;6312949;22;20015;-92
2022/11/29 00:20:18;;;;;;;13.43;3.33;;;;;;;;;;6306045;22;20015;-92
2022/11/29 00:22:44;;;;;;;14.70;3.72;;;;;;;;;;6303906;22;20003;-91
2022/11/29 00:25:09;;;;;;;15.10;3.50;;;;;;;;;;6326217;22;20018;-92
2022/11/29 00:27:34;;;;;;;12.20;3.75;;;;;;;;;;6325606;22;20000;-92
2022/11/29 00:30:00;;;;;;;12.50;3.35;;;;;;;;;;6299821;22;20030;-93
2022/11/29 00:32:25;;;;;;;10.55;3.20;;;;;;;;;;6304448;22;20015;-93
2022/11/29 00:34:51;;;;;;;12.75;3.58;;;;;;;;;;6302672;22;20003;-92
2022/11/29 00:37:16;;;;;;;11.52;3.58;;;;;;;;;;6299633;22;20003;-92
2022/11/29 00:39:41;;;;;;;11.07;3.83;;;;;;;;;;6300394;22;20013;-92
2022/11/29 00:42:07;;;;;;;11.10;3.63;;;;;;;;;;6298001;22;20007;-92
2022/11/29 00:44:33;;;;;;;11.48;3.65;;;;;;;;;;6298627;22;20018;-92
2022/11/29 00:46:58;;;;;;;15.57;3.67;;;;;;;;;;6298134;22;20003;-92
2022/11/29 00:49:23;;;;;;;13.63;3.42;;;;;;;;;;6299805;22;19995;-91
2022/11/29 00:51:48;;;;;;;13.23;3.20;;;;;;;;;;6297895;22;20106;-91
2022/11/29 00:54:14;;;;;;;9.70;2.75;;;;;;;;;;6298015;22;20511;-91
2022/11/29 00:56:40;;;;;;;11.65;2.80;;;;;;;;;;6298586;22;20019;-92
2022/11/29 00:59:05;;;;;;;8.38;2.67;;;;;;;;;;6298644;22;20374;-91
2022/11/29 01:01:30;;;;;;;11.15;2.83;;;;;;;;;;6301419;22;20015;-92
2022/11/29 01:03:56;;;;;;;10.05;2.85;;;;;;;;;;6299307;22;20007;-92
2022/11/29 01:06:21;;;;;;;10.07;2.80;;;;;;;;;;6300423;22;20059;-92
2022/11/29 01:08:47;;;;;;;8.15;2.70;;;;;;;;;;6298620;22;20050;-93
2022/11/29 01:11:12;;;;;;;7.63;2.47;;;;;;;;;;6299535;22;20007;-92
2022/11/29 01:13:38;;;;;;;9.30;2.90;;;;;;;;;;6299435;22;20478;-91
2022/11/29 01:16:04;;;;;;;10.70;2.50;;;;;;;;;;6300087;22;20011;-92
2022/11/29 01:18:29;;;;;;;11.70;2.90;;;;;;;;;;6300742;22;20496;-92
2022/11/29 01:21:06;;;;;;;8.82;2.72;;;;;;;;;;6259057;22;1251925;-93
2022/11/29 01:23:31;;;;;;;10.73;2.67;;;;;;;;;;6305457;22;20098;-92
2022/11/29 01:26:01;;;;;;;8.68;2.60;;;;;;;;;;6305880;22;20422;-92
2022/11/29 01:28:27;;;;;;;11.48;2.60;;;;;;;;;;6334187;22;20085;-91
2022/11/29 01:30:52;;;;;;;10.35;2.60;;;;;;;;;;6305369;22;20083;-92
2022/11/29 01:33:17;;;;;;;10.32;2.70;;;;;;;;;;6333003;22;20011;-92
2022/11/29 01:35:46;;;;;;;11.27;2.45;;;;;;;;;;6332496;22;20006;-92
2022/11/29 01:38:12;;;;;;;9.40;2.35;;;;;;;;;;6305135;22;20506;-92
2022/11/29 01:40:37;;;;;;;8.55;2.03;;;;;;;;;;6332786;22;20010;-93
2022/11/29 01:43:08;;;;;;;7.55;2.40;;;;;;;;;;6333340;22;20096;-92
2022/11/29 01:45:35;;;;;;;8.30;2.33;;;;;;;;;;6306239;22;19998;-92
2022/11/29 01:48:01;;;;;;;7.63;2.30;;;;;;;;;;6306525;22;20105;-92
2022/11/29 01:50:26;;;;;;;8.32;1.83;;;;;;;;;;6332783;22;20075;-92
2022/11/29 01:52:51;;;;;;;13.18;2.35;;;;;;;;;;6331728;22;19994;-92
2022/11/29 01:55:17;;;;;;;8.13;2.60;;;;;;;;;;6332398;22;20018;-92
2022/11/29 01:57:42;;;;;;;10.20;2.30;;;;;;;;;;6306435;22;20017;-91
2022/11/29 02:00:10;;;;;;;9.43;2.30;;;;;;;;;;6306527;22;20447;-92
2022/11/29 02:02:49;;;;;;;8.13;2.45;;;;;;;;;;6305212;22;20056;-91
2022/11/29 02:05:15;;;;;;;9.40;2.00;;;;;;;;;;6305492;22;20083;-92
2022/11/29 02:07:43;;;;;;;7.45;1.55;;;;;;;;;;6304903;22;19999;-93
2022/11/29 02:10:09;;;;;;;8.90;2.35;;;;;;;;;;6304141;22;20094;-92
2022/11/29 02:12:40;;;;;;;7.30;2.15;;;;;;;;;;6304170;22;20038;-92
2022/11/29 02:15:17;;;;;;;9.77;2.20;;;;;;;;;;6334510;22;20345;-93
2022/11/29 02:17:42;;;;;;;9.02;2.17;;;;;;;;;;6304788;22;20232;-93
2022/11/29 02:20:26;;;;;;;11.17;2.10;;;;;;;;;;6331856;22;20738;-93
2022/11/29 02:22:54;;;;;;;7.65;2.15;;;;;;;;;;6304380;22;20255;-93
2022/11/29 02:25:38;;;;;;;11.02;2.20;;;;;;;;;;6304948;22;20015;-93
2022/11/29 02:28:03;;;;;;;;;;;;;;;;;;6305524;22;20006;-93
2022/11/29 02:30:37;;;;;;;7.68;1.80;;;;;;;;;;6319258;22;19894;-92
2022/11/29 02:33:21;;;;;;;6.97;1.73;;;;;;;;;;6334242;22;19995;-93
2022/11/29 02:36:13;;;;;;;8.45;2.10;;;;;;;;;;6307271;22;20018;-93
2022/11/29 02:38:38;;;;;;;7.85;2.10;;;;;;;;;;6337302;22;20440;-94
2022/11/29 02:41:03;;;;;;;7.40;1.92;;;;;;;;;;6314643;22;20010;-92
2022/11/29 02:43:38;;;;;;;8.05;2.28;;;;;;;;;;6360820;22;20021;-92
2022/11/29 02:46:16;;;;;;;6.25;1.70;;;;;;;;;;6320325;22;20057;-93
2022/11/29 02:49:02;;;;;;;7.22;1.60;;;;;;;;;;6307168;22;20206;-92
2022/11/29 02:51:39;;;;;;;9.13;1.90;;;;;;;;;;6334065;22;20065;-92
2022/11/29 02:54:09;;;;;;;6.63;1.55;;;;;;;;;;6333652;22;20048;-92
2022/11/29 02:56:41;;;;;;;8.55;1.65;;;;;;;;;;6305214;22;20030;-92
2022/11/29 02:59:18;;;;;;;6.93;1.70;;;;;;;;;;6302459;22;20003;-93
2022/11/29 03:04:39;;;;;;;8.00;1.70;;;;;;;;;;6299052;22;20039;-92
2022/11/29 03:07:10;;;;;;;8.77;2.00;;;;;;;;;;6274348;22;20011;-91
2022/11/29 03:09:44;;;;;;;7.03;1.75;;;;;;;;;;6304386;22;19998;-92
2022/11/29 03:12:20;;;;;;;9.27;2.08;;;;;;;;;;6305370;22;20338;-92
2022/11/29 03:14:54;;;;;;;6.28;1.58;;;;;;;;;;6304718;22;20002;-90
2022/11/29 03:17:38;;;;;;;8.00;1.58;;;;;;;;;;6306458;22;20009;-92
2022/11/29 03:20:12;;;;;;;6.57;1.88;;;;;;;;;;6333476;22;20001;-91
2022/11/29 03:22:53;;;;;;;6.30;1.50;;;;;;;;;;6304423;22;20074;-92
2022/11/29 03:25:22;;;;;;;6.45;1.63;;;;;;;;;;6333297;22;20702;-92
2022/11/29 03:28:11;;;;;;;7.35;1.60;;;;;;;;;;6330122;22;20011;-92
2022/11/29 03:30:39;;;;;;;8.57;1.80;;;;;;;;;;6304673;22;20005;-92
2022/11/29 03:33:04;;;;;;;9.50;2.08;;;;;;;;;;6304615;22;20028;-92
2022/11/29 03:35:48;;;;;;;9.43;2.10;;;;;;;;;;6304515;22;20009;-93
2022/11/29 03:38:24;;;;;;;6.95;1.58;;;;;;;;;;6305751;22;20330;-91
2022/11/29 03:41:04;;;;;;;7.20;1.80;;;;;;;;;;6304774;22;20014;-93
2022/11/29 03:43:49;;;;;;;7.65;2.00;;;;;;;;;;6333692;22;20033;-93
2022/11/29 03:46:29;;;;;;;9.80;2.10;;;;;;;;;;6305393;22;20385;-92
2022/11/29 03:49:15;;;;;;;8.43;2.00;;;;;;;;;;6304991;22;20090;-93
2022/11/29 03:52:06;;;;;;;8.70;2.00;;;;;;;;;;6330327;22;19999;-92
2022/11/29 03:55:01;;;;;;;6.72;2.03;;;;;;;;;;6304317;22;20011;-93
2022/11/29 03:57:49;;;;;;;9.68;2.35;;;;;;;;;;6305305;22;20098;-92
2022/11/29 04:00:15;;;;;;;9.43;1.90;;;;;;;;;;6309605;22;20019;-92
2022/11/29 04:02:40;;;;;;;7.55;1.85;;;;;;;;;;6304411;22;20023;-93
2022/11/29 04:05:09;;;;;;;6.82;1.80;;;;;;;;;;6331424;22;19999;-92
2022/11/29 04:07:40;;;;;;;11.02;2.15;;;;;;;;;;6329400;22;20002;-91
2022/11/29 04:10:24;;;;;;;7.47;1.70;;;;;;;;;;6305278;22;20011;-92
2022/11/29 04:13:08;;;;;;;8.85;1.70;;;;;;;;;;6303458;22;20522;-93
2022/11/29 04:15:53;;;;;;;8.52;2.17;;;;;;;;;;6305474;22;20037;-92
2022/11/29 04:18:37;;;;;;;7.35;1.60;;;;;;;;;;6252688;22;20011;-93
2022/11/29 04:21:11;;;;;;;8.00;1.80;;;;;;;;;;6332577;22;20010;-92
2022/11/29 04:23:40;;;;;;;9.25;1.60;;;;;;;;;;6305613;22;20010;-93
2022/11/29 04:26:14;;;;;;;7.53;2.00;;;;;;;;;;6305627;22;20007;-91
2022/11/29 04:28:39;;;;;;;8.05;1.70;;;;;;;;;;6304575;22;20006;-92
2022/11/29 04:31:23;;;;;;;7.03;1.95;;;;;;;;;;6333161;22;20005;-91
2022/11/29 04:33:52;;;;;;;7.90;1.70;;;;;;;;;;6305066;22;20014;-91
2022/11/29 04:36:20;;;;;;;6.93;1.90;;;;;;;;;;6305632;22;20091;-92
2022/11/29 04:38:48;;;;;;;6.53;1.90;;;;;;;;;;6333474;22;20006;-91
2022/11/29 04:41:16;;;;;;;7.72;2.28;;;;;;;;;;6334796;22;20021;-92
2022/11/29 04:43:58;;;;;;;7.82;1.63;;;;;;;;;;6305928;22;20015;-92
2022/11/29 04:46:35;;;;;;;8.65;1.83;;;;;;;;;;6318774;22;20013;-92
2022/11/29 04:49:21;;;;;;;7.18;1.75;;;;;;;;;;6332381;22;20006;-91
2022/11/29 04:52:13;;;;;;;7.57;2.00;;;;;;;;;;6295969;22;20011;-91
2022/11/29 04:54:42;;;;;;;10.68;2.00;;;;;;;;;;6326183;22;20003;-92
2022/11/29 04:57:16;;;;;;;9.55;1.85;;;;;;;;;;6315417;22;19999;-92
2022/11/29 04:59:43;;;;;;;6.53;2.00;;;;;;;;;;6332970;22;20048;-92
2022/11/29 05:02:16;;;;;;;7.53;1.80;;;;;;;;;;6319318;22;20019;-93
2022/11/29 05:05:05;;;;;;;11.70;2.35;;;;;;;;;;6335540;22;20007;-93
2022/11/29 05:07:30;;;;;;;9.82;2.20;;;;;;;;;;6331800;22;19999;-93
2022/11/29 05:10:12;;;;;;;9.30;2.90;;;;;;;;;;6332232;22;20074;-93
2022/11/29 05:12:43;;;;;;;9.18;2.90;;;;;;;;;;6332037;22;20010;-92
2022/11/29 05:15:08;;;;;;;9.25;2.60;;;;;;;;;;6332639;22;20041;-93
2022/11/29 05:18:03;;;;;;;8.67;2.93;;;;;;;;;;6304729;22;20357;-92
2022/11/29 05:20:35;;;;;;;10.55;3.00;;;;;;;;;;6297338;22;20306;-93
2022/11/29 05:23:03;;;;;;;11.43;2.50;;;;;;;;;;6333371;22;20009;-93
2022/11/29 05:25:37;;;;;;;12.15;3.15;;;;;;;;;;6306490;22;20117;-92
2022/11/29 05:28:06;;;;;;;11.45;2.65;;;;;;;;;;6334087;22;20288;-92
2022/11/29 05:30:40;;;;;;;10.27;2.70;;;;;;;;;;6306738;22;20003;-92
2022/11/29 05:33:27;;;;;;;8.43;2.63;;;;;;;;;;6306032;22;20007;-92
2022/11/29 05:36:09;;;;;;;9.18;2.63;;;;;;;;;;6305252;22;20515;-90
2022/11/29 05:38:37;;;;;;;10.00;2.58;;;;;;;;;;6305316;22;20006;-92
2022/11/29 05:41:24;;;;;;;7.85;2.40;;;;;;;;;;6305505;22;20015;-92
2022/11/29 05:43:55;;;;;;;9.13;2.25;;;;;;;;;;6304859;22;20017;-92
2022/11/29 05:46:26;;;;;;;7.10;2.10;;;;;;;;;;6306013;22;19994;-92
2022/11/29 05:48:57;;;;;;;9.73;2.20;;;;;;;;;;6305539;22;20077;-94
2022/11/29 05:51:28;;;;;;;8.07;2.30;;;;;;;;;;6306307;22;20080;-92
2022/11/29 05:54:10;;;;;;;7.60;2.15;;;;;;;;;;6306135;22;20060;-94
2022/11/29 05:56:56;;;;;;;14.25;2.58;;;;;;;;;;6305683;22;20002;-94
2022/11/29 05:59:26;;;;;;;9.50;2.05;;;;;;;;;;6306813;22;20042;-92
2022/11/29 06:02:10;;;;;;;8.32;2.40;;;;;;;;;;6305666;22;20156;-93
2022/11/29 06:04:38;;;;;;;9.65;2.42;;;;;;;;;;6303815;22;20022;-93
2022/11/29 06:07:07;;;;;;;7.80;1.95;;;;;;;;;;6305720;22;20007;-92
2022/11/29 06:09:43;;;;;;;8.60;2.63;;;;;;;;;;6305147;22;20062;-93
2022/11/29 06:12:14;;;;;;;10.52;2.88;;;;;;;;;;6305478;22;20451;-92
2022/11/29 06:14:52;;;;;;;11.02;2.60;;;;;;;;;;6332983;22;20063;-92
2022/11/29 06:17:38;;;;;;;11.50;2.63;;;;;;;;;;6305901;22;20332;-92
2022/11/29 06:20:13;;;;;;;8.18;2.40;;;;;;;;;;6305487;22;20007;-92
2022/11/29 06:22:49;;;;;;;12.10;2.80;;;;;;;;;;6333791;22;20030;-93
2022/11/29 06:25:20;;;;;;;10.13;2.80;;;;;;;;;;6333302;22;20128;-92
2022/11/29 06:28:05;;;;;;;12.27;3.70;;;;;;;;;;6334798;22;20002;-93
2022/11/29 06:30:50;;;;;;;10.50;3.28;;;;;;;;;;6306969;22;20006;-93
2022/11/29 06:33:39;;;;;;;12.80;3.15;;;;;;;;;;6253411;22;20018;-93
2022/11/29 06:36:14;;;;;;;12.00;3.45;;;;;;;;;;6177363;23;20080;-93
2022/11/29 06:38:40;;;;;;;9.60;3.40;;;;;;;;;;6148898;23;20013;-93
2022/11/29 06:41:06;;;;;;;11.93;4.00;;;;;;;;;;6176246;23;20009;-93
2022/11/29 06:43:32;;;;;;;10.75;3.28;;;;;;;;;;6175269;23;20028;-92
2022/11/29 06:46:08;;;;;;;13.18;3.65;;;;;;;;;;6175482;23;20350;-92
2022/11/29 06:48:37;;;;;;;16.58;3.63;;;;;;;;;;6150901;23;20819;-93
2022/11/29 06:51:07;;;;;;;14.90;3.97;;;;;;;;;;6149673;23;20009;-94
2022/11/29 06:53:47;;;;;;;13.32;4.25;;;;;;;;;;6174915;23;20450;-93
2022/11/29 06:56:20;;;;;;;11.98;4.18;;;;;;;;;;6151068;23;20525;-93
2022/11/29 06:59:03;;;;;;;11.35;4.03;;;;;;;;;;6151605;23;20467;-93
2022/11/29 07:01:49;;;;;;;10.30;3.50;;;;;;;;;;6153247;23;20407;-92
2022/11/29 07:04:15;;;;;;;12.10;3.75;;;;;;;;;;6153952;23;20127;-93
2022/11/29 07:06:40;;;;;;;12.05;3.67;;;;;;;;;;6178984;23;20009;-93
2022/11/29 07:09:13;;;;;;;15.27;3.90;;;;;;;;;;6200865;23;20089;-93
2022/11/29 07:11:39;;;;;;;13.65;3.60;;;;;;;;;;6182229;23;20001;-91
2022/11/29 07:14:04;;;;;;;12.25;3.90;;;;;;;;;;6293496;22;20450;-93
2022/11/29 07:16:37;;;;;;;11.15;3.60;;;;;;;;;;6318980;22;20045;-92
2022/11/29 07:19:15;;;;;;;11.05;3.28;;;;;;;;;;6333178;22;20007;-93
2022/11/29 07:21:44;;;;;;;13.93;3.97;;;;;;;;;;6317216;22;19995;-94
2022/11/29 07:24:28;;;;;;;15.35;4.38;;;;;;;;;;6310309;22;20114;-94
2022/11/29 07:27:14;;;;;;;11.23;3.63;;;;;;;;;;6308172;22;19996;-94
2022/11/29 07:29:45;;;;;;;31.73;5.78;;;;;;;;;;6252734;22;20003;-92
2022/11/29 07:32:14;;;;;;;14.30;4.45;;;;;;;;;;6335801;22;20022;-95
2022/11/29 07:34:46;;;;;;;17.27;4.47;;;;;;;;;;6308109;22;20011;-94
2022/11/29 07:37:15;;;;;;;15.52;4.75;;;;;;;;;;6308281;22;20008;-94
2022/11/29 07:39:50;;;;;;;19.77;5.63;;;;;;;;;;6306501;22;19995;-93
2022/11/29 07:42:39;;;;;;;13.80;4.68;;;;;;;;;;6305654;22;20030;-92
2022/11/29 07:45:05;;;;;;;13.05;4.82;;;;;;;;;;6305392;22;20122;-93
2022/11/29 07:47:30;;;;;;;15.07;5.30;;;;;;;;;;6305376;22;20485;-93
2022/11/29 07:49:55;;;;;;;16.88;5.30;;;;;;;;;;6308394;22;20013;-94
2022/11/29 07:52:21;;;;;;;14.65;4.65;;;;;;;;;;6306671;22;20060;-94
2022/11/29 07:54:47;;;;;;;14.05;4.90;;;;;;;;;;6304502;22;20329;-93
2022/11/29 07:57:12;;;;;;;16.90;5.45;;;;;;;;;;6307230;22;20466;-93
2022/11/29 07:59:37;;;;;;;13.38;5.40;;;;;;;;;;6334683;22;19991;-93
2022/11/29 08:02:03;;;;;;;13.38;5.25;;;;;;;;;;6305427;22;20164;-94
2022/11/29 08:04:31;;;;;;;16.63;4.93;;;;;;;;;;6306474;22;20191;-93
2022/11/29 08:06:58;;;;;;;17.55;5.32;;;;;;;;;;6305576;22;20007;-94
2022/11/29 08:09:23;;;;;;;16.42;5.88;;;;;;;;;;6333589;22;20003;-94
2022/11/29 08:11:49;;;;;;;17.65;6.20;;;;;;;;;;6332313;22;20064;-93
2022/11/29 08:14:14;;;;;;;18.05;6.18;;;;;;;;;;6307929;22;20428;-95
2022/11/29 08:16:39;;;;;;;17.15;5.88;;;;;;;;;;6303795;22;20007;-95
2022/11/29 08:19:05;;;;;;;18.83;6.28;;;;;;;;;;6328271;22;20010;-93
2022/11/29 08:21:30;;;;;;;17.52;5.15;;;;;;;;;;6332001;22;20007;-93
2022/11/29 08:23:56;;;;;;;20.38;5.18;;;;;;;;;;6304899;22;20417;-94
2022/11/29 08:26:22;;;;;;;15.80;5.45;;;;;;;;;;6308396;22;20034;-93
2022/11/29 08:28:51;;;;;;;16.33;5.65;;;;;;;;;;6308386;22;20060;-96
2022/11/29 08:31:16;;;;;;;19.17;5.65;;;;;;;;;;6309193;22;20002;-94
2022/11/29 08:33:42;;;;;;;19.33;5.10;;;;;;;;;;6304624;22;20053;-93
2022/11/29 08:36:08;;;;;;;23.17;5.18;;;;;;;;;;6304897;22;20067;-93
2022/11/29 08:38:37;;;;;;;13.07;5.03;;;;;;;;;;6334160;22;20002;-93
2022/11/29 08:41:03;;;;;;;16.55;5.20;;;;;;;;;;6305163;22;20021;-93
2022/11/29 08:43:29;;;;;;;16.35;4.72;;;;;;;;;;6303715;22;20018;-93
2022/11/29 08:45:55;;;;;;;18.50;4.65;;;;;;;;;;6332558;22;19999;-93
2022/11/29 08:48:20;;;;;;;18.45;5.03;;;;;;;;;;6304554;22;20006;-93
2022/11/29 08:50:47;;;;;;;17.55;5.05;;;;;;;;;;6304484;22;20007;-94
2022/11/29 08:55:58;;;;;;;17.40;6.25;;;;;;;;;;6331116;22;20068;-91
2022/11/29 08:58:24;;;;;;;18.75;7.53;;;;;;;;;;6303395;22;20010;-92
2022/11/29 09:00:49;;;;;;;16.85;7.53;;;;;;;;;;6332444;22;20001;-92
2022/11/29 09:05:58;;;;;;;;;;;;;;;;;;6334474;22;20064;-94
2022/11/29 09:08:23;;;;;;;45.00;17.37;;;;;;;;;;6332143;22;19903;-92
2022/11/29 09:10:49;;;;;;;44.63;17.05;;;;;;;;;;6305216;22;20331;-92
2022/11/29 09:13:14;;;;;;;32.47;11.75;;;;;;;;;;6305695;22;20017;-92
2022/11/29 09:15:42;;;;;;;29.73;11.60;;;;;;;;;;6305914;22;20011;-93
2022/11/29 09:18:07;;;;;;;29.08;11.02;;;;;;;;;;6304560;22;20017;-93
2022/11/29 09:20:33;;;;;;;32.00;13.38;;;;;;;;;;6313950;22;20372;-93
2022/11/29 09:22:58;;;;;;;19.70;7.07;;;;;;;;;;6322526;22;20014;-94
2022/11/29 09:25:24;;;;;;;21.42;7.38;;;;;;;;;;6314787;22;20409;-93
2022/11/29 09:27:50;;;;;;;20.23;8.10;;;;;;;;;;6308154;22;20606;-93
2022/11/29 09:30:15;;;;;;;16.95;7.00;;;;;;;;;;6306800;22;19995;-93
2022/11/29 09:32:41;;;;;;;20.15;7.45;;;;;;;;;;6336328;22;20052;-93
2022/11/29 09:35:06;;;;;;;18.15;6.78;;;;;;;;;;6345790;22;20397;-94
2022/11/29 09:37:32;;;;;;;18.00;6.75;;;;;;;;;;6308501;22;20116;-93
2022/11/29 09:39:57;;;;;;;16.20;6.68;;;;;;;;;;6305148;22;20028;-93
2022/11/29 09:42:31;;;;;;;14.30;5.95;;;;;;;;;;6333815;22;20001;-93
2022/11/29 09:45:03;;;;;;;17.67;5.80;;;;;;;;;;6332034;22;20003;-93
2022/11/29 09:47:49;;;;;;;13.15;5.70;;;;;;;;;;6303619;22;20013;-92
2022/11/29 09:50:18;;;;;;;15.05;5.93;;;;;;;;;;6304958;22;20006;-93
2022/11/29 09:52:51;;;;;;;17.52;6.28;;;;;;;;;;6305676;22;20336;-93
2022/11/29 09:55:16;;;;;;;;;;;;;;;;;;6304726;22;20704;-92
2022/11/29 09:57:42;;;;;;;12.93;4.93;;;;;;;;;;6305455;22;19906;-93
2022/11/29 10:00:15;;;;;;;18.35;5.65;;;;;;;;;;6303786;22;20013;-92
2022/11/29 10:02:46;;;;;;;14.70;5.20;;;;;;;;;;6331433;22;20023;-91
2022/11/29 10:05:31;;;;;;;15.00;4.93;;;;;;;;;;6304301;22;19998;-93
2022/11/29 10:08:03;;;;;;;16.85;5.57;;;;;;;;;;6301781;22;20030;-91
2022/11/29 10:10:40;;;;;;;19.15;7.03;;;;;;;;;;6330781;22;20029;-94
2022/11/29 10:13:14;;;;;;;16.90;6.72;;;;;;;;;;6302391;22;20026;-92
2022/11/29 10:15:41;;;;;;;21.85;8.13;;;;;;;;;;6328760;22;20018;-92
2022/11/29 10:18:26;;;;;;;19.00;8.10;;;;;;;;;;6329832;22;20005;-92
2022/11/29 10:20:56;;;;;;;18.95;8.52;;;;;;;;;;6303814;22;20064;-92
2022/11/29 10:23:40;;;;;;;20.55;7.93;;;;;;;;;;6329685;22;20003;-93
2022/11/29 10:26:07;;;;;;;22.50;7.03;;;;;;;;;;6329298;22;20042;-92
2022/11/29 10:28:34;;;;;;;21.98;8.32;;;;;;;;;;6302231;22;20036;-92
2022/11/29 10:31:19;;;;;;;20.65;7.53;;;;;;;;;;6329216;22;20010;-91
2022/11/29 10:33:45;;;;;;;20.52;7.53;;;;;;;;;;6301543;22;20439;-92
2022/11/29 10:36:17;;;;;;;20.33;8.18;;;;;;;;;;6327704;22;20118;-92
2022/11/29 10:38:43;;;;;;;24.42;8.23;;;;;;;;;;6299734;22;20017;-93
2022/11/29 10:41:12;;;;;;;18.58;7.43;;;;;;;;;;6328022;22;20007;-92
2022/11/29 10:43:38;;;;;;;21.00;8.07;;;;;;;;;;6297289;22;20010;-92
2022/11/29 10:46:04;;;;;;;17.88;7.38;;;;;;;;;;6297077;22;20015;-92
2022/11/29 10:48:33;;;;;;;21.05;7.85;;;;;;;;;;6297486;22;19999;-93
2022/11/29 10:50:59;;;;;;;24.00;8.40;;;;;;;;;;6297716;22;20056;-93
2022/11/29 10:53:26;;;;;;;31.27;9.02;;;;;;;;;;6298300;22;20041;-93
2022/11/29 10:55:52;;;;;;;52.20;10.73;;;;;;;;;;6326105;22;20446;-92
2022/11/29 10:58:24;;;;;;;79.00;11.75;;;;;;;;;;6298401;22;20006;-93
2022/11/29 11:00:58;;;;;;;142.65;12.85;;;;;;;;;;6298724;22;20010;-92
2022/11/29 11:03:35;;;;;;;97.35;12.10;;;;;;;;;;6295696;22;20518;-92
2022/11/29 11:06:01;;;;;;;111.68;12.15;;;;;;;;;;6325621;22;19995;-93
2022/11/29 11:08:26;;;;;;;141.60;11.63;;;;;;;;;;6299666;22;20007;-91
2022/11/29 11:10:54;;;;;;;120.90;11.27;;;;;;;;;;6300207;22;20014;-93
2022/11/29 11:13:20;;;;;;;180.00;19.17;;;;;;;;;;6298594;22;20011;-92
2022/11/29 11:15:46;;;;;;;113.68;10.88;;;;;;;;;;6324025;22;20060;-92
2022/11/29 11:18:22;;;;;;;145.23;23.58;;;;;;;;;;6300647;22;20094;-92
2022/11/29 11:20:56;;;;;;;163.75;30.58;;;;;;;;;;6301564;22;20014;-92
2022/11/29 11:23:24;;;;;;;;;;;;;;;;;;6334950;22;20006;-94
2022/11/29 11:26:10;;;;;;;177.98;35.22;;;;;;;;;;6302274;22;19966;-91
2022/11/29 11:28:38;;;;;;;95.55;14.45;;;;;;;;;;6325690;22;20003;-92
2022/11/29 11:31:06;;;;;;;142.75;40.85;;;;;;;;;;6300276;22;20072;-94
2022/11/29 11:33:34;;;;;;;101.15;25.80;;;;;;;;;;6295575;22;20061;-92
2022/11/29 11:36:02;;;;;;;92.43;9.68;;;;;;;;;;6298442;22;20721;-92
2022/11/29 11:38:27;;;;;;;90.43;9.75;;;;;;;;;;6342250;22;20014;-94
2022/11/29 11:41:19;;;;;;;132.73;10.65;;;;;;;;;;6327303;22;19999;-94
2022/11/29 11:43:49;;;;;;;151.13;12.70;;;;;;;;;;6327526;22;20018;-93
2022/11/29 11:46:14;;;;;;;202.15;14.50;;;;;;;;;;6307075;22;20002;-93
2022/11/29 11:48:41;;;;;;;191.73;15.55;;;;;;;;;;6314115;22;20041;-93
2022/11/29 11:51:13;;;;;;;171.82;12.98;;;;;;;;;;6357670;22;20010;-94
2022/11/29 11:53:38;;;;;;;134.93;12.18;;;;;;;;;;6318193;22;20046;-93
2022/11/29 11:56:09;;;;;;;160.32;13.10;;;;;;;;;;6308754;22;19995;-94
2022/11/29 11:58:56;;;;;;;195.27;14.65;;;;;;;;;;6304770;22;20002;-93
2022/11/29 12:01:21;;;;;;;175.00;13.68;;;;;;;;;;6303538;22;20026;-94
2022/11/29 12:03:49;;;;;;;143.55;12.05;;;;;;;;;;6331321;22;20015;-93
2022/11/29 12:06:33;;;;;;;110.88;10.50;;;;;;;;;;6303696;22;20014;-93
2022/11/29 12:09:18;;;;;;;84.82;8.68;;;;;;;;;;6305102;22;20390;-94
2022/11/29 12:11:46;;;;;;;95.47;9.90;;;;;;;;;;6305427;22;20086;-93
2022/11/29 12:14:16;;;;;;;173.80;11.95;;;;;;;;;;6303041;22;20704;-91
2022/11/29 12:16:43;;;;;;;133.48;11.95;;;;;;;;;;6301995;22;20354;-93
2022/11/29 12:19:16;;;;;;;128.20;11.63;;;;;;;;;;6330294;22;19999;-91
2022/11/29 12:21:43;;;;;;;160.40;12.15;;;;;;;;;;6301301;22;20439;-92
2022/11/29 12:24:15;;;;;;;145.80;11.93;;;;;;;;;;6307193;22;20093;-95
2022/11/29 12:26:40;;;;;;;208.32;15.48;;;;;;;;;;6336824;22;20471;-94
2022/11/29 12:29:13;;;;;;;192.38;12.98;;;;;;;;;;6307216;22;20003;-94
2022/11/29 12:31:44;;;;;;;129.10;12.15;;;;;;;;;;6308557;22;20003;-94
2022/11/29 12:34:31;;;;;;;182.32;13.07;;;;;;;;;;6335661;22;19998;-94
2022/11/29 12:37:14;;;;;;;117.38;11.45;;;;;;;;;;6335304;22;19994;-94
2022/11/29 12:39:51;;;;;;;172.77;12.18;;;;;;;;;;6300645;22;20015;-90
2022/11/29 12:42:35;;;;;;;208.35;17.63;;;;;;;;;;6300918;22;20733;-93
2022/11/29 12:45:10;;;;;;;116.18;10.88;;;;;;;;;;6302022;22;19995;-92
2022/11/29 12:47:54;;;;;;;119.93;12.27;;;;;;;;;;6299322;22;20011;-91
2022/11/29 12:50:37;;;;;;;193.07;15.98;;;;;;;;;;6298506;22;20061;-93
2022/11/29 12:53:06;;;;;;;297.88;19.48;;;;;;;;;;6302709;22;20007;-92
2022/11/29 12:55:31;;;;;;;226.05;15.13;;;;;;;;;;6328661;22;20028;-93
2022/11/29 12:58:02;;;;;;;184.68;13.23;;;;;;;;;;6300110;22;20019;-91
2022/11/29 13:00:31;;;;;;;243.57;17.75;;;;;;;;;;6302254;22;20007;-92
2022/11/29 13:03:02;;;;;;;146.68;12.63;;;;;;;;;;6325529;22;20468;-92
2022/11/29 13:05:34;;;;;;;168.27;12.32;;;;;;;;;;6300265;22;20017;-90
2022/11/29 13:07:59;;;;;;;169.52;11.10;;;;;;;;;;6296963;22;20013;-90
2022/11/29 13:10:38;;;;;;;123.30;10.10;;;;;;;;;;6300991;22;20110;-91
2022/11/29 13:13:10;;;;;;;158.48;11.65;;;;;;;;;;6300785;22;20495;-92
2022/11/29 13:15:49;;;;;;;202.50;12.88;;;;;;;;;;6301339;22;20027;-91
2022/11/29 13:18:33;;;;;;;134.82;10.00;;;;;;;;;;6301392;22;20006;-91
2022/11/29 13:21:03;;;;;;;125.03;9.73;;;;;;;;;;6301439;22;20010;-91
2022/11/29 13:23:31;;;;;;;127.35;10.40;;;;;;;;;;6301129;22;20056;-92
2022/11/29 13:25:59;;;;;;;168.38;11.90;;;;;;;;;;6300892;22;20052;-92
2022/11/29 13:28:28;;;;;;;195.18;15.75;;;;;;;;;;6299954;22;20078;-92
2022/11/29 13:30:58;;;;;;;175.70;12.50;;;;;;;;;;6300312;22;20002;-92
2022/11/29 13:33:27;;;;;;;167.05;11.85;;;;;;;;;;6300327;22;20061;-92
2022/11/29 13:36:00;;;;;;;206.13;13.52;;;;;;;;;;6302595;22;20489;-91
2022/11/29 13:38:35;;;;;;;181.20;13.07;;;;;;;;;;6299173;22;20424;-91
2022/11/29 13:41:15;;;;;;;266.13;16.58;;;;;;;;;;6326906;22;20094;-91
2022/11/29 13:43:44;;;;;;;163.55;11.40;;;;;;;;;;6301906;22;20344;-91
2022/11/29 13:46:15;;;;;;;117.57;10.18;;;;;;;;;;6332315;22;20038;-91
2022/11/29 13:48:50;;;;;;;170.30;10.52;;;;;;;;;;6335918;22;19978;-92
2022/11/29 13:51:25;;;;;;;112.03;9.32;;;;;;;;;;6357865;22;20010;-91
2022/11/29 13:53:50;;;;;;;108.65;8.20;;;;;;;;;;6316718;22;20003;-91
2022/11/29 13:56:28;;;;;;;163.48;11.00;;;;;;;;;;6304827;22;20011;-91
2022/11/29 13:58:54;;;;;;;139.38;11.30;;;;;;;;;;6333048;22;20117;-91
2022/11/29 14:01:20;;;;;;;156.38;14.07;;;;;;;;;;6333752;22;20049;-91
2022/11/29 14:04:06;;;;;;;147.43;11.20;;;;;;;;;;6322604;22;20015;-91
2022/11/29 14:06:33;;;;;;;141.52;11.55;;;;;;;;;;6331641;22;19999;-91
2022/11/29 14:09:17;;;;;;;126.60;8.98;;;;;;;;;;6302527;22;20002;-91
2022/11/29 14:11:52;;;;;;;143.18;12.82;;;;;;;;;;6300791;22;20031;-91
2022/11/29 14:14:26;;;;;;;86.93;7.15;;;;;;;;;;6302071;22;20017;-91
2022/11/29 14:16:54;;;;;;;65.53;6.25;;;;;;;;;;6330121;22;20451;-91
2022/11/29 14:19:27;;;;;;;88.45;9.30;;;;;;;;;;6329227;22;20017;-91
2022/11/29 14:22:01;;;;;;;110.57;9.45;;;;;;;;;;6329892;22;20014;-91
2022/11/29 14:24:36;;;;;;;90.13;8.68;;;;;;;;;;6302612;22;20003;-90
2022/11/29 14:27:04;;;;;;;80.97;7.50;;;;;;;;;;6330077;22;20369;-91
2022/11/29 14:29:48;;;;;;;98.38;8.10;;;;;;;;;;6330236;22;20002;-91
2022/11/29 14:32:19;;;;;;;46.38;5.57;;;;;;;;;;6329888;22;19991;-91
2022/11/29 14:34:47;;;;;;;41.20;5.57;;;;;;;;;;6301868;22;20045;-91
2022/11/29 14:37:24;;;;;;;50.67;5.18;;;;;;;;;;6328780;22;20452;-92
2022/11/29 14:39:53;;;;;;;131.35;8.70;;;;;;;;;;6328086;22;20003;-92
2022/11/29 14:42:19;;;;;;;84.38;7.50;;;;;;;;;;6302291;22;20026;-91
2022/11/29 14:45:00;;;;;;;52.97;6.07;;;;;;;;;;6295004;22;20060;-91
2022/11/29 14:47:25;;;;;;;54.83;6.57;;;;;;;;;;6296882;22;20088;-90
2022/11/29 14:49:52;;;;;;;60.53;6.45;;;;;;;;;;6327558;22;20003;-90
2022/11/29 14:52:23;;;;;;;49.53;6.38;;;;;;;;;;6303764;22;20046;-89
2022/11/29 14:54:57;;;;;;;62.85;6.95;;;;;;;;;;6297780;22;20013;-89
2022/11/29 14:57:41;;;;;;;81.60;6.45;;;;;;;;;;6298940;22;20017;-89
2022/11/29 15:00:10;;;;;;;274.17;17.27;;;;;;;;;;6324922;22;20467;-89
2022/11/29 15:02:55;;;;;;;184.02;12.60;;;;;;;;;;6298980;22;20080;-89